Time;durP1;ratioP1;P1;durP2;ratioP2;P2;SDS_P1;SDS_P2;PMS_P1;PMS_P2;Temp;Humidity;BMP_temperature;BMP_pressure;BME280_temperature;BME280_humidity;BME280_pressure;Samples;Min_cycle;Max_cycle;Signal;HPM_P1;HPM_P2
2022/06/30 00:02:06;;;;;;;0.10;0.10;;;;;;;22.20;69.01;100775.38;5008042;28;20038;-61
2022/06/30 00:04:32;;;;;;;0.03;0.03;;;;;;;21.71;71.93;100782.06;4985091;28;20555;-61
2022/06/30 00:06:57;;;;;;;6.90;1.60;;;;;;;21.58;73.02;100770.97;5000872;28;20108;-61
2022/06/30 00:09:23;;;;;;;2.15;0.17;;;;;;;21.63;72.60;100768.94;5009117;28;20429;-61
2022/06/30 00:11:48;;;;;;;0.00;0.00;;;;;;;21.64;71.70;100779.47;5010340;28;20105;-61
2022/06/30 00:14:14;;;;;;;0.15;0.15;;;;;;;21.42;72.45;100781.16;4990431;28;20029;-61
2022/06/30 00:16:39;;;;;;;0.10;0.00;;;;;;;21.56;72.91;100776.13;4995778;28;20046;-61
2022/06/30 00:19:05;;;;;;;0.17;0.17;;;;;;;21.55;73.54;100768.31;5004447;28;20024;-61
2022/06/30 00:21:31;;;;;;;0.00;0.00;;;;;;;21.57;74.02;100754.97;5011367;28;20509;-62
2022/06/30 00:23:56;;;;;;;0.03;0.03;;;;;;;21.45;72.59;100763.84;5005834;28;20021;-61
2022/06/30 00:26:22;;;;;;;0.00;0.00;;;;;;;21.60;72.84;100767.06;5010876;28;20040;-61
2022/06/30 00:28:47;;;;;;;0.32;0.17;;;;;;;21.67;72.96;100762.16;5010849;28;20026;-61
2022/06/30 00:31:13;;;;;;;0.55;0.55;;;;;;;21.67;73.03;100751.19;5007972;28;20030;-61
2022/06/30 00:33:38;;;;;;;0.15;0.15;;;;;;;21.53;74.03;100749.56;4999224;28;20030;-61
2022/06/30 00:36:04;;;;;;;0.30;0.30;;;;;;;21.49;73.95;100748.88;5004533;28;20044;-61
2022/06/30 00:38:30;;;;;;;0.10;0.10;;;;;;;21.49;73.74;100750.84;5010986;28;20029;-61
2022/06/30 00:40:55;;;;;;;0.13;0.10;;;;;;;21.62;72.95;100750.94;5010914;28;20505;-62
2022/06/30 00:43:21;;;;;;;0.20;0.10;;;;;;;21.60;73.29;100748.63;5000020;28;20030;-61
2022/06/30 00:45:48;;;;;;;0.05;0.05;;;;;;;21.64;72.80;100740.31;5008774;28;20041;-61
2022/06/30 00:48:15;;;;;;;0.15;0.10;;;;;;;21.71;72.83;100737.41;5010475;28;20176;-62
2022/06/30 00:50:41;;;;;;;0.25;0.15;;;;;;;21.60;72.55;100739.63;4992523;28;20104;-61
2022/06/30 00:53:08;;;;;;;0.10;0.10;;;;;;;21.37;74.29;100738.56;5009266;28;20120;-61
2022/06/30 00:55:34;;;;;;;0.10;0.10;;;;;;;21.35;75.03;100738.22;4992429;28;20080;-61
2022/06/30 00:58:03;;;;;;;0.10;0.10;;;;;;;21.40;75.06;100736.94;5005468;28;20085;-62
2022/06/30 01:00:32;;;;;;;0.20;0.10;;;;;;;21.25;75.81;100731.00;5009049;28;20436;-61
2022/06/30 01:03:00;;;;;;;0.10;0.10;;;;;;;21.20;76.03;100737.00;5003146;28;20034;-61
2022/06/30 01:05:26;;;;;;;0.55;0.10;;;;;;;21.11;76.05;100717.63;5004050;28;20062;-61
2022/06/30 01:07:55;;;;;;;0.20;0.20;;;;;;;20.97;77.80;100720.63;5009108;28;20022;-61
2022/06/30 01:13:05;;;;;;;0.10;0.10;;;;;;;20.86;77.83;100711.88;4998168;28;20037;-62
2022/06/30 01:15:31;;;;;;;0.85;0.38;;;;;;;20.77;77.35;100711.66;5004074;28;20452;-62
2022/06/30 01:17:58;;;;;;;0.10;0.10;;;;;;;20.64;78.50;100717.00;4977606;28;20220;-61
2022/06/30 01:20:26;;;;;;;0.20;0.10;;;;;;;20.69;78.61;100711.03;4998960;28;20029;-61
2022/06/30 01:22:52;;;;;;;0.10;0.10;;;;;;;20.73;78.11;100707.47;5000074;28;20034;-61
2022/06/30 01:25:17;;;;;;;0.00;0.00;;;;;;;20.76;78.63;100704.66;4989392;28;20042;-61
2022/06/30 01:27:43;;;;;;;0.40;0.20;;;;;;;20.81;78.01;100709.63;5000219;28;20683;-61
2022/06/30 01:30:09;;;;;;;0.08;0.08;;;;;;;20.71;78.81;100702.44;5004249;28;20101;-62
2022/06/30 01:32:35;;;;;;;0.00;0.00;;;;;;;20.68;79.34;100700.50;5004692;28;20042;-61
2022/06/30 01:35:00;;;;;;;0.30;0.30;;;;;;;20.57;79.74;100700.75;5004799;28;20037;-61
2022/06/30 01:37:26;;;;;;;0.40;0.25;;;;;;;20.61;78.50;100703.41;5009147;28;20069;-61
2022/06/30 01:39:52;;;;;;;0.00;0.00;;;;;;;20.59;80.10;100694.84;5006861;28;20137;-61
2022/06/30 01:42:18;;;;;;;0.00;0.00;;;;;;;20.66;79.70;100691.94;5001461;28;20032;-61
2022/06/30 01:44:44;;;;;;;0.05;0.05;;;;;;;20.47;80.29;100704.47;4999846;28;20030;-61
2022/06/30 01:47:09;;;;;;;0.08;0.08;;;;;;;20.18;82.06;100694.44;5003552;28;20038;-62
2022/06/30 01:49:36;;;;;;;0.10;0.10;;;;;;;20.33;82.05;100701.97;5008545;28;20037;-61
2022/06/30 01:52:02;;;;;;;0.00;0.00;;;;;;;20.42;81.40;100699.47;5000396;28;20030;-61
2022/06/30 01:54:28;;;;;;;0.13;0.10;;;;;;;20.40;81.45;100706.56;4996506;28;20049;-62
2022/06/30 01:56:53;;;;;;;0.20;0.10;;;;;;;20.25;81.81;100700.56;5001785;28;20041;-62
2022/06/30 01:59:19;;;;;;;0.05;0.05;;;;;;;20.37;81.93;100710.91;4989166;28;20107;-62
2022/06/30 02:01:45;;;;;;;0.00;0.00;;;;;;;20.30;82.35;100711.03;5001218;28;20068;-62
2022/06/30 02:06:55;;;;;;;0.17;0.17;;;;;;;20.21;82.63;100708.06;4998610;28;20037;-61
2022/06/30 02:09:20;;;;;;;0.08;0.08;;;;;;;19.84;83.04;100707.53;4995882;28;20690;-61
2022/06/30 02:11:46;;;;;;;0.20;0.10;;;;;;;20.18;82.43;100710.84;4996702;28;20042;-62
2022/06/30 02:14:11;;;;;;;0.20;0.20;;;;;;;20.09;83.28;100702.41;5009105;28;20021;-62
2022/06/30 02:16:37;;;;;;;0.10;0.10;;;;;;;19.76;83.99;100704.16;5008436;28;20072;-62
2022/06/30 02:19:03;;;;;;;0.20;0.20;;;;;;;19.61;85.08;100708.28;4985649;28;20030;-62
2022/06/30 02:21:29;;;;;;;0.10;0.10;;;;;;;19.83;84.36;100717.69;5000331;28;20396;-62
2022/06/30 02:23:54;;;;;;;0.13;0.13;;;;;;;19.86;84.96;100722.31;5008737;28;20101;-62
2022/06/30 02:26:21;;;;;;;0.10;0.10;;;;;;;19.88;84.41;100722.69;5007761;28;20037;-61
2022/06/30 02:28:46;;;;;;;0.28;0.28;;;;;;;19.77;85.20;100730.28;5004982;28;20512;-61
2022/06/30 02:31:12;;;;;;;0.20;0.20;;;;;;;19.43;85.72;100719.50;4992979;28;20042;-62
2022/06/30 02:33:39;;;;;;;0.22;0.22;;;;;;;19.40;86.62;100723.03;4999393;28;20100;-61
2022/06/30 02:36:06;;;;;;;1.23;0.35;;;;;;;19.62;86.72;100721.56;5005811;28;20022;-61
2022/06/30 02:38:32;;;;;;;0.00;0.00;;;;;;;19.62;86.12;100718.81;5008227;28;20057;-61
2022/06/30 02:40:57;;;;;;;0.10;0.10;;;;;;;19.51;86.26;100725.63;5006806;28;20064;-61
2022/06/30 02:43:23;;;;;;;0.20;0.20;;;;;;;19.44;86.66;100715.56;5005506;28;20102;-61
2022/06/30 02:45:48;;;;;;;0.20;0.10;;;;;;;19.43;87.17;100714.03;5006553;28;20042;-61
2022/06/30 02:48:15;;;;;;;0.10;0.10;;;;;;;19.45;87.59;100719.84;4998176;28;20037;-61
2022/06/30 02:50:41;;;;;;;0.22;0.20;;;;;;;19.71;86.67;100712.81;4982160;28;20033;-61
2022/06/30 02:53:06;;;;;;;0.15;0.15;;;;;;;19.80;86.46;100713.06;5008692;28;20113;-61
2022/06/30 02:55:32;;;;;;;0.00;0.00;;;;;;;19.95;85.38;100714.38;4991146;28;20084;-61
2022/06/30 02:57:58;;;;;;;0.20;0.10;;;;;;;20.01;84.89;100714.66;4985067;28;20100;-61
2022/06/30 03:00:24;;;;;;;0.00;0.00;;;;;;;19.99;84.68;100706.09;5009208;28;20025;-61
2022/06/30 03:02:49;;;;;;;0.10;0.10;;;;;;;19.78;86.29;100709.97;5008136;28;20033;-61
2022/06/30 03:05:15;;;;;;;3.03;1.10;;;;;;;19.82;85.99;100698.97;5007615;28;20026;-62
2022/06/30 03:07:40;;;;;;;1.15;1.00;;;;;;;20.01;85.61;100707.25;5007457;28;20025;-60
2022/06/30 03:10:06;;;;;;;0.80;0.80;;;;;;;19.95;84.61;100697.97;5009238;28;20046;-60
2022/06/30 03:12:32;;;;;;;1.13;1.00;;;;;;;19.91;86.10;100694.53;5009008;28;20022;-60
2022/06/30 03:14:57;;;;;;;1.80;0.90;;;;;;;19.94;85.85;100701.13;5008504;28;20038;-60
2022/06/30 03:17:24;;;;;;;1.08;0.80;;;;;;;20.00;85.64;100696.69;5004193;28;20543;-61
2022/06/30 03:19:50;;;;;;;0.73;0.65;;;;;;;20.17;84.75;100687.44;4990550;28;20045;-60
2022/06/30 03:22:15;;;;;;;2.83;0.55;;;;;;;20.16;83.81;100677.66;5007697;28;20025;-60
2022/06/30 03:24:41;;;;;;;0.50;0.30;;;;;;;20.05;85.45;100685.28;5005891;28;20041;-61
2022/06/30 03:27:06;;;;;;;0.10;0.10;;;;;;;19.98;85.99;100686.19;5011770;28;20022;-61
2022/06/30 03:29:32;;;;;;;0.20;0.20;;;;;;;20.14;85.14;100677.31;5012290;28;20044;-61
2022/06/30 03:31:57;;;;;;;0.25;0.20;;;;;;;20.27;84.24;100670.06;5047869;22;20037;-60
2022/06/30 03:34:23;;;;;;;0.20;0.20;;;;;;;20.26;84.29;100674.78;5053024;28;20028;-58
2022/06/30 03:36:49;;;;;;;0.22;0.22;;;;;;;20.29;84.73;100671.19;5072683;28;20028;-57
2022/06/30 03:39:14;;;;;;;0.35;0.13;;;;;;;20.28;84.72;100677.84;5067710;28;20431;-60
2022/06/30 03:41:40;;;;;;;0.13;0.13;;;;;;;20.24;84.50;100668.16;5074083;28;20037;-57
2022/06/30 03:44:06;;;;;;;0.30;0.20;;;;;;;20.29;84.21;100670.41;5081900;28;20043;-61
2022/06/30 03:46:31;;;;;;;0.30;0.30;;;;;;;20.40;83.92;100671.00;5055067;28;20036;-60
2022/06/30 03:48:57;;;;;;;0.00;0.00;;;;;;;20.24;85.27;100677.16;5073062;28;20050;-59
2022/06/30 03:51:22;;;;;;;0.00;0.00;;;;;;;20.31;85.26;100670.75;5075327;28;20445;-61
2022/06/30 03:53:48;;;;;;;0.30;0.30;;;;;;;20.24;85.34;100670.91;5075675;28;20024;-60
2022/06/30 03:56:14;;;;;;;0.20;0.20;;;;;;;20.34;84.83;100664.47;5054638;28;20473;-61
2022/06/30 03:58:39;;;;;;;0.00;0.00;;;;;;;20.24;85.26;100668.16;5073734;28;20028;-60
2022/06/30 04:01:05;;;;;;;0.13;0.13;;;;;;;20.32;84.97;100666.84;5071518;28;20024;-61
2022/06/30 04:03:31;;;;;;;0.00;0.00;;;;;;;20.38;85.42;100662.44;5079442;28;20476;-62
2022/06/30 04:05:56;;;;;;;0.20;0.20;;;;;;;20.34;85.56;100661.72;5072362;28;20558;-64
2022/06/30 04:08:22;;;;;;;0.10;0.10;;;;;;;20.19;85.59;100669.41;5073213;28;20037;-59
2022/06/30 04:10:47;;;;;;;0.17;0.17;;;;;;;20.31;85.46;100671.53;5073358;28;20032;-59
2022/06/30 04:13:13;;;;;;;0.10;0.00;;;;;;;20.48;84.72;100670.41;5073188;28;20037;-61
2022/06/30 04:15:39;;;;;;;0.50;0.50;;;;;;;20.47;85.25;100662.63;5055415;28;20109;-62
2022/06/30 04:18:04;;;;;;;0.00;0.00;;;;;;;20.52;84.45;100665.63;5072674;28;20039;-59
2022/06/30 04:20:30;;;;;;;0.08;0.08;;;;;;;20.62;83.82;100659.19;5073143;28;20032;-61
2022/06/30 04:22:55;;;;;;;0.15;0.13;;;;;;;20.68;83.63;100659.44;5073349;28;20408;-61
2022/06/30 04:25:21;;;;;;;0.10;0.10;;;;;;;20.73;84.14;100658.19;5069102;28;21814;-61
2022/06/30 04:27:53;;;;;;;0.10;0.10;;;;;;;20.59;84.23;100654.56;5063717;28;20047;-59
2022/06/30 04:32:37;;;;;;;0.00;0.00;;;;;;;20.71;84.10;100669.56;5077248;28;20098;-61
2022/06/30 04:33:06;;;;;;;0.00;0.00;;;;;;;20.82;83.37;100658.38;5047398;28;20404;-60
2022/06/30 04:35:32;;;;;;;0.00;0.00;;;;;;;20.89;82.90;100656.25;5065082;28;20059;-59
2022/06/30 04:37:59;;;;;;;0.00;0.00;;;;;;;20.75;83.85;100655.81;5068882;28;20068;-62
2022/06/30 04:43:09;;;;;;;0.10;0.10;;;;;;;20.99;83.43;100659.97;5071176;28;20055;-59
2022/06/30 04:45:34;;;;;;;0.17;0.17;;;;;;;21.07;83.14;100655.91;5046915;28;20484;-62
2022/06/30 04:48:00;;;;;;;0.00;0.00;;;;;;;21.06;82.03;100666.06;5068562;28;20082;-61
2022/06/30 04:50:25;;;;;;;0.10;0.10;;;;;;;21.07;82.10;100661.38;5072765;28;20031;-58
2022/06/30 04:52:51;;;;;;;0.20;0.20;;;;;;;21.20;81.68;100659.50;5048686;28;20028;-62
2022/06/30 04:55:16;;;;;;;0.10;0.10;;;;;;;21.30;81.67;100659.28;5067912;28;20031;-62
2022/06/30 04:57:42;;;;;;;0.00;0.00;;;;;;;21.19;82.05;100664.22;5072385;28;20032;-62
2022/06/30 05:00:08;;;;;;;0.00;0.00;;;;;;;21.27;81.57;100660.09;5069081;28;20028;-62
2022/06/30 05:02:33;;;;;;;0.28;0.28;;;;;;;21.25;82.30;100667.97;5066628;28;20396;-60
2022/06/30 05:04:59;;;;;;;0.00;0.00;;;;;;;21.24;82.09;100677.41;5073263;28;20031;-62
2022/06/30 05:07:25;;;;;;;0.00;0.00;;;;;;;21.30;82.18;100662.00;5070881;28;20117;-61
2022/06/30 05:09:51;;;;;;;0.08;0.08;;;;;;;21.46;82.28;100670.25;5068759;28;20025;-61
2022/06/30 05:12:16;;;;;;;0.00;0.00;;;;;;;21.64;81.50;100671.78;5049982;28;20433;-61
2022/06/30 05:14:42;;;;;;;0.00;0.00;;;;;;;21.79;81.07;100672.97;5053582;28;20118;-62
2022/06/30 05:17:07;;;;;;;0.00;0.00;;;;;;;22.09;80.44;100675.31;5064024;28;20442;-58
2022/06/30 05:19:33;;;;;;;0.40;0.40;;;;;;;22.75;77.99;100671.94;5056771;28;20059;-61
2022/06/30 05:21:59;;;;;;;0.05;0.05;;;;;;;23.30;75.39;100677.72;5070127;28;20400;-60
2022/06/30 05:27:09;;;;;;;0.00;0.00;;;;;;;24.77;69.72;100679.38;5066076;28;20145;-58
2022/06/30 05:29:35;;;;;;;0.43;0.32;;;;;;;25.17;67.15;100673.09;5049735;28;20036;-59
2022/06/30 05:32:00;;;;;;;0.20;0.20;;;;;;;25.62;65.33;100676.03;5064614;28;20118;-59
2022/06/30 05:34:26;;;;;;;0.35;0.20;;;;;;;25.99;64.61;100672.09;5065171;28;20036;-59
2022/06/30 05:36:51;;;;;;;0.00;0.00;;;;;;;26.39;63.30;100674.69;5070777;28;20032;-62
2022/06/30 05:39:17;;;;;;;0.00;0.00;;;;;;;26.58;60.69;100673.44;5071427;28;20447;-60
2022/06/30 05:41:43;;;;;;;12.30;0.93;;;;;;;26.69;60.01;100682.78;5069216;28;20029;-59
2022/06/30 05:44:08;;;;;;;0.15;0.10;;;;;;;26.75;60.23;100683.72;5078706;28;20036;-57
2022/06/30 05:46:36;;;;;;;0.17;0.17;;;;;;;26.98;59.25;100676.75;5069596;28;20048;-59
2022/06/30 05:49:02;;;;;;;0.00;0.00;;;;;;;27.12;58.73;100684.34;5071373;28;20045;-57
2022/06/30 05:51:28;;;;;;;0.10;0.10;;;;;;;27.26;58.59;100683.69;5071421;28;20572;-55
2022/06/30 05:53:53;;;;;;;0.20;0.17;;;;;;;27.19;58.49;100681.28;5071251;28;20119;-58
2022/06/30 05:56:19;;;;;;;1.67;0.80;;;;;;;27.42;57.78;100680.56;5070529;28;20094;-58
2022/06/30 05:58:45;;;;;;;0.10;0.10;;;;;;;27.53;57.56;100685.56;5069537;28;20473;-58
2022/06/30 06:01:11;;;;;;;0.00;0.00;;;;;;;27.53;56.45;100685.56;5081021;28;20024;-60
2022/06/30 06:03:36;;;;;;;0.08;0.05;;;;;;;27.74;56.70;100689.31;5058145;28;20032;-61
2022/06/30 06:06:02;;;;;;;0.22;0.22;;;;;;;27.72;56.45;100680.69;5069746;28;20105;-60
2022/06/30 06:08:28;;;;;;;0.00;0.00;;;;;;;27.66;56.89;100681.34;5067035;28;20039;-60
2022/06/30 06:10:53;;;;;;;0.08;0.08;;;;;;;27.25;56.65;100679.41;5078306;28;20093;-58
2022/06/30 06:13:19;;;;;;;0.00;0.00;;;;;;;27.45;57.86;100678.84;5073307;28;20486;-61
2022/06/30 06:15:45;;;;;;;0.03;0.03;;;;;;;27.55;57.42;100677.56;5067425;28;20075;-62
2022/06/30 06:18:11;;;;;;;0.60;0.60;;;;;;;27.48;56.64;100677.91;5066400;28;20232;-59
2022/06/30 06:20:36;;;;;;;0.05;0.05;;;;;;;27.52;57.52;100678.50;5051200;28;20032;-60
2022/06/30 06:23:02;;;;;;;0.90;0.17;;;;;;;27.61;57.00;100676.47;5065866;28;20035;-59
2022/06/30 06:25:27;;;;;;;0.25;0.20;;;;;;;27.65;57.12;100670.75;5070794;28;20094;-59
2022/06/30 06:30:37;;;;;;;0.30;0.30;;;;;;;27.63;58.01;100664.91;5070261;28;20182;-62
2022/06/30 06:33:03;;;;;;;0.15;0.15;;;;;;;27.63;57.75;100662.91;5062966;28;20123;-61
2022/06/30 06:35:28;;;;;;;0.17;0.17;;;;;;;27.61;57.05;100670.16;5049461;28;20165;-62
2022/06/30 06:37:54;;;;;;;0.10;0.10;;;;;;;27.57;57.68;100667.56;5049567;28;20080;-61
2022/06/30 06:40:19;;;;;;;0.22;0.22;;;;;;;27.70;58.13;100661.78;5059228;28;20032;-61
2022/06/30 06:42:45;;;;;;;0.17;0.17;;;;;;;27.33;58.57;100666.75;5070033;28;20031;-61
2022/06/30 06:45:10;;;;;;;0.22;0.22;;;;;;;27.50;57.94;100675.44;5065673;28;20421;-61
2022/06/30 06:47:36;;;;;;;0.10;0.10;;;;;;;27.58;58.00;100682.16;5040743;28;20109;-62
2022/06/30 06:50:02;;;;;;;0.00;0.00;;;;;;;27.75;58.19;100680.53;5069592;28;20037;-61
2022/06/30 06:52:28;;;;;;;0.32;0.10;;;;;;;27.81;57.71;100675.88;5069920;28;20029;-62
2022/06/30 06:54:53;;;;;;;0.10;0.10;;;;;;;27.88;57.32;100671.94;5065858;28;20040;-62
2022/06/30 06:57:19;;;;;;;0.10;0.10;;;;;;;27.96;57.19;100675.94;5069356;28;20016;-63
2022/06/30 06:59:44;;;;;;;0.15;0.15;;;;;;;28.08;56.46;100670.16;5067543;28;20035;-62
2022/06/30 07:02:10;;;;;;;0.05;0.05;;;;;;;28.17;56.39;100672.81;5073219;28;20052;-64
2022/06/30 07:04:36;;;;;;;0.20;0.15;;;;;;;28.20;56.08;100669.09;5045105;28;20560;-64
2022/06/30 07:07:02;;;;;;;0.10;0.10;;;;;;;28.19;56.43;100675.13;5043207;28;20467;-64
2022/06/30 07:09:28;;;;;;;0.10;0.10;;;;;;;28.24;56.18;100674.47;5070073;28;20123;-61
2022/06/30 07:11:53;;;;;;;0.10;0.10;;;;;;;28.26;56.07;100669.22;5068925;28;20096;-62
2022/06/30 07:14:19;;;;;;;0.20;0.20;;;;;;;28.26;56.25;100674.75;5078953;28;20035;-61
2022/06/30 07:16:44;;;;;;;0.45;0.10;;;;;;;28.33;55.77;100666.84;5067076;28;20028;-61
2022/06/30 07:19:10;;;;;;;0.28;0.28;;;;;;;28.44;55.55;100669.81;5074971;28;20028;-61
2022/06/30 07:21:36;;;;;;;0.20;0.20;;;;;;;28.36;55.31;100673.41;5069520;28;20029;-58
2022/06/30 07:24:02;;;;;;;0.95;0.45;;;;;;;28.43;56.37;100676.59;5069561;28;20439;-57
2022/06/30 07:26:27;;;;;;;0.03;0.03;;;;;;;28.44;54.71;100669.03;5065763;28;20024;-60
2022/06/30 07:28:53;;;;;;;0.08;0.00;;;;;;;28.56;55.35;100675.56;5069123;28;20036;-62
2022/06/30 07:31:20;;;;;;;0.13;0.13;;;;;;;28.79;55.01;100669.94;5068592;28;20119;-59
2022/06/30 07:33:46;;;;;;;0.28;0.10;;;;;;;28.78;55.35;100670.41;5068531;28;20032;-62
2022/06/30 07:36:15;;;;;;;0.10;0.10;;;;;;;28.84;54.40;100676.81;5067543;28;20028;-61
2022/06/30 07:38:43;;;;;;;0.05;0.05;;;;;;;28.86;52.90;100677.84;5069276;28;20533;-62
2022/06/30 07:41:08;;;;;;;0.00;0.00;;;;;;;28.92;52.67;100687.03;5050677;28;20067;-58
2022/06/30 07:43:34;;;;;;;5.43;0.65;;;;;;;29.24;51.18;100677.72;5074694;28;20166;-63
2022/06/30 07:45:59;;;;;;;0.13;0.13;;;;;;;29.31;52.22;100680.09;5036347;28;20052;-61
2022/06/30 07:48:25;;;;;;;0.05;0.05;;;;;;;29.21;51.55;100677.94;5068776;28;20102;-61
2022/06/30 07:50:50;;;;;;;0.05;0.05;;;;;;;29.18;53.17;100671.34;5063689;28;20291;-62
2022/06/30 07:53:16;;;;;;;0.00;0.00;;;;;;;29.24;51.66;100674.19;5075814;28;20036;-62
2022/06/30 07:55:42;;;;;;;0.30;0.30;;;;;;;29.17;52.15;100661.47;5071275;28;20405;-64
2022/06/30 07:58:08;;;;;;;0.03;0.03;;;;;;;29.59;51.23;100660.28;5068805;28;20037;-62
2022/06/30 08:00:33;;;;;;;0.00;0.00;;;;;;;29.74;50.12;100664.53;5064544;28;20051;-62
2022/06/30 08:02:59;;;;;;;0.10;0.10;;;;;;;29.53;50.14;100659.44;5068903;28;20458;-59
2022/06/30 08:05:25;;;;;;;0.30;0.30;;;;;;;29.72;50.92;100658.72;5062682;28;20025;-62
2022/06/30 08:07:50;;;;;;;0.00;0.00;;;;;;;29.73;50.80;100653.94;5058581;28;20033;-63
2022/06/30 08:10:17;;;;;;;0.00;0.00;;;;;;;29.53;50.35;100660.22;5051438;28;20048;-62
2022/06/30 08:12:43;;;;;;;0.20;0.10;;;;;;;29.77;49.76;100665.59;5073267;28;20407;-63
2022/06/30 08:15:09;;;;;;;0.45;0.35;;;;;;;29.87;49.20;100662.16;5072754;28;20033;-61
2022/06/30 08:17:35;;;;;;;0.10;0.10;;;;;;;29.97;49.22;100671.91;5071363;28;20028;-61
2022/06/30 08:20:00;;;;;;;0.15;0.15;;;;;;;30.08;49.42;100672.00;5083227;28;20373;-60
2022/06/30 08:22:26;;;;;;;0.10;0.10;;;;;;;30.20;49.12;100673.66;5072871;28;20074;-60
2022/06/30 08:24:52;;;;;;;0.08;0.08;;;;;;;30.03;47.41;100667.16;5073105;28;20111;-61
2022/06/30 08:27:18;;;;;;;0.35;0.22;;;;;;;30.08;47.59;100660.16;5069839;28;20107;-61
2022/06/30 08:29:43;;;;;;;0.10;0.10;;;;;;;30.27;47.96;100655.81;5054198;28;20146;-61
2022/06/30 08:32:09;;;;;;;0.13;0.13;;;;;;;30.40;47.58;100649.88;5072217;28;20048;-63
2022/06/30 08:34:34;;;;;;;0.00;0.00;;;;;;;30.53;46.87;100647.47;5073058;28;20027;-61
2022/06/30 08:37:00;;;;;;;0.13;0.10;;;;;;;30.52;46.23;100646.72;5073080;28;20036;-62
2022/06/30 08:42:12;;;;;;;0.10;0.10;;;;;;;30.46;45.22;100625.66;5072381;28;20146;-62
2022/06/30 08:44:42;;;;;;;0.10;0.10;;;;;;;30.70;45.45;100640.03;5053323;28;20138;-63
2022/06/30 08:47:08;;;;;;;0.03;0.03;;;;;;;30.12;45.98;100628.09;5073391;28;20035;-60
2022/06/30 08:49:35;;;;;;;0.43;0.43;;;;;;;30.58;46.71;100625.28;5084660;28;20032;-63
2022/06/30 08:52:01;;;;;;;0.00;0.00;;;;;;;30.86;47.52;100634.63;5072468;28;20020;-62
2022/06/30 08:54:28;;;;;;;0.10;0.10;;;;;;;30.99;45.45;100632.16;5070035;28;20441;-62
2022/06/30 08:56:56;;;;;;;0.08;0.08;;;;;;;31.17;45.25;100633.81;5042394;28;20036;-62
2022/06/30 08:59:24;;;;;;;0.15;0.15;;;;;;;31.21;43.92;100623.19;5072182;28;20103;-62
2022/06/30 09:01:50;;;;;;;0.98;0.75;;;;;;;31.46;44.52;100621.56;5072595;28;20075;-62
2022/06/30 09:04:16;;;;;;;0.00;0.00;;;;;;;31.72;43.63;100627.78;5066261;28;20055;-60
2022/06/30 09:06:45;;;;;;;0.10;0.10;;;;;;;31.79;43.17;100622.47;5064928;28;20063;-63
2022/06/30 09:09:11;;;;;;;0.08;0.08;;;;;;;31.72;42.86;100622.97;5079499;28;20031;-62
2022/06/30 09:11:54;;;;;;;0.17;0.17;;;;;;;31.98;43.48;100624.84;5071629;28;20499;-62
2022/06/30 09:14:35;;;;;;;0.03;0.03;;;;;;;31.85;42.70;100622.50;5060229;28;20038;-61
2022/06/30 09:17:06;;;;;;;1.85;0.45;;;;;;;31.58;43.55;100620.38;5064067;28;20024;-62
2022/06/30 09:19:33;;;;;;;0.22;0.22;;;;;;;31.82;43.56;100615.88;5082577;28;20025;-60
2022/06/30 09:22:03;;;;;;;0.30;0.30;;;;;;;31.73;43.56;100612.56;5071613;28;20059;-62
2022/06/30 09:24:29;;;;;;;0.00;0.00;;;;;;;31.83;44.70;100605.50;5070636;28;20032;-63
2022/06/30 09:27:27;;;;;;;0.10;0.00;;;;;;;32.15;43.72;100611.69;5071610;28;20032;-60
2022/06/30 09:29:55;;;;;;;0.00;0.00;;;;;;;31.90;43.24;100605.78;5074637;28;20396;-61
2022/06/30 09:32:21;;;;;;;0.30;0.25;;;;;;;32.07;43.71;100591.16;5100269;22;20036;-65
2022/06/30 09:34:51;;;;;;;0.17;0.17;;;;;;;32.21;43.04;100602.06;5088575;28;20060;-64
2022/06/30 09:37:22;;;;;;;0.00;0.00;;;;;;;32.26;43.34;100595.75;5090653;28;20391;-64
2022/06/30 09:39:50;;;;;;;0.00;0.00;;;;;;;32.05;43.46;100588.88;5092044;28;20031;-64
2022/06/30 09:42:40;;;;;;;0.00;0.00;;;;;;;31.88;43.73;100591.59;5078507;28;20032;-64
2022/06/30 09:45:12;;;;;;;0.05;0.00;;;;;;;32.22;43.87;100591.66;5071659;28;20036;-64
2022/06/30 09:47:52;;;;;;;0.00;0.00;;;;;;;32.26;43.58;100575.44;5052872;28;20123;-64
2022/06/30 09:50:18;;;;;;;0.07;0.03;;;;;;;32.50;43.57;100576.47;5055266;28;20044;-65
2022/06/30 09:52:43;;;;;;;0.00;0.00;;;;;;;32.70;43.70;100576.22;5057074;28;20296;-64
2022/06/30 09:55:09;;;;;;;0.30;0.10;;;;;;;32.79;42.64;100578.00;5063993;28;20040;-64
2022/06/30 09:57:41;;;;;;;0.10;0.10;;;;;;;32.98;43.57;100567.81;5070129;28;20078;-63
2022/06/30 10:00:11;;;;;;;0.10;0.10;;;;;;;32.77;41.78;100574.94;5057406;28;20063;-61
2022/06/30 10:02:44;;;;;;;1.55;0.30;;;;;;;32.80;42.86;100566.31;5066934;28;20028;-64
2022/06/30 10:05:10;;;;;;;0.15;0.05;;;;;;;32.85;42.20;100565.53;5044934;28;20492;-61
2022/06/30 10:07:38;;;;;;;0.13;0.03;;;;;;;33.08;42.06;100560.69;5060743;28;20064;-62
2022/06/30 10:10:10;;;;;;;0.10;0.10;;;;;;;33.17;42.71;100560.41;5050262;28;20024;-62
2022/06/30 10:12:36;;;;;;;0.03;0.00;;;;;;;32.98;42.11;100555.88;5066288;28;20056;-62
2022/06/30 10:15:03;;;;;;;0.10;0.10;;;;;;;33.14;42.17;100564.19;5055882;28;20028;-60
2022/06/30 10:17:35;;;;;;;0.03;0.03;;;;;;;33.14;42.17;100564.19;5067127;28;20124;-63
2022/06/30 10:20:01;;;;;;;0.05;0.05;;;;;;;33.28;42.68;100570.75;5053000;28;20124;-62
2022/06/30 10:22:29;;;;;;;0.40;0.40;;;;;;;33.37;42.02;100568.41;5065722;28;20032;-61
2022/06/30 10:24:56;;;;;;;0.00;0.00;;;;;;;33.07;41.92;100559.16;5059373;28;20089;-61
2022/06/30 10:27:24;;;;;;;0.20;0.20;;;;;;;33.29;42.39;100564.66;5057421;28;20029;-64
2022/06/30 10:29:57;;;;;;;0.00;0.00;;;;;;;33.21;41.95;100552.50;5068246;28;20055;-65
2022/06/30 10:32:26;;;;;;;0.10;0.10;;;;;;;33.14;41.65;100560.66;5060313;28;20147;-64
2022/06/30 10:35:20;;;;;;;0.10;0.00;;;;;;;33.33;41.63;100565.16;5053502;28;20552;-64
2022/06/30 10:38:20;;;;;;;0.08;0.08;;;;;;;33.56;41.55;100569.41;5054486;28;20086;-63
2022/06/30 10:40:52;;;;;;;0.00;0.00;;;;;;;33.59;41.79;100575.97;5063234;28;20020;-63
2022/06/30 10:43:18;;;;;;;0.08;0.00;;;;;;;33.85;41.96;100565.16;5049401;28;20064;-64
2022/06/30 10:46:02;;;;;;;0.10;0.10;;;;;;;33.80;41.04;100568.00;5036778;28;20386;-64
2022/06/30 10:48:47;;;;;;;0.10;0.08;;;;;;;33.90;40.97;100569.19;5048785;28;20033;-63
2022/06/30 10:51:14;;;;;;;0.00;0.00;;;;;;;34.10;40.13;100558.41;5055286;28;20041;-63
2022/06/30 10:53:40;;;;;;;0.00;0.00;;;;;;;33.63;41.43;100554.09;5055455;28;20032;-63
2022/06/30 10:56:05;;;;;;;0.17;0.17;;;;;;;33.76;41.05;100557.06;5052394;28;20659;-64
2022/06/30 10:58:31;;;;;;;0.10;0.10;;;;;;;33.91;41.22;100551.91;5051284;28;20079;-62
2022/06/30 11:00:58;;;;;;;0.03;0.03;;;;;;;33.81;41.25;100552.72;5053388;28;20523;-62
2022/06/30 11:03:30;;;;;;;0.00;0.00;;;;;;;33.86;41.05;100551.91;5051042;28;20123;-62
2022/06/30 11:05:57;;;;;;;0.85;0.22;;;;;;;33.88;40.97;100554.97;5052735;28;20497;-63
2022/06/30 11:08:47;;;;;;;0.10;0.08;;;;;;;34.24;40.37;100545.34;5051740;28;20112;-63
2022/06/30 11:11:22;;;;;;;0.05;0.05;;;;;;;34.32;41.57;100551.88;5051677;28;20508;-62
2022/06/30 11:14:00;;;;;;;0.00;0.00;;;;;;;34.58;41.00;100546.56;5058280;28;20024;-63
2022/06/30 11:16:26;;;;;;;0.10;0.10;;;;;;;34.54;39.92;100555.25;5051517;28;20033;-63
2022/06/30 11:18:51;;;;;;;0.00;0.00;;;;;;;34.51;39.81;100547.88;5059848;28;20024;-63
2022/06/30 11:21:17;;;;;;;0.28;0.25;;;;;;;34.48;39.64;100546.16;5054295;28;20449;-63
2022/06/30 11:23:48;;;;;;;0.10;0.08;;;;;;;34.27;39.71;100549.88;5060209;28;20029;-61
2022/06/30 11:29:00;;;;;;;0.10;0.00;;;;;;;34.36;41.17;100546.75;5055323;28;20031;-63
2022/06/30 11:31:36;;;;;;;0.25;0.10;;;;;;;34.51;40.31;100541.56;5063610;28;20557;-63
2022/06/30 11:34:10;;;;;;;0.00;0.00;;;;;;;34.66;40.13;100535.53;5051405;28;20036;-62
2022/06/30 11:36:37;;;;;;;0.10;0.10;;;;;;;34.93;40.04;100532.44;5057345;28;20050;-63
2022/06/30 11:39:12;;;;;;;0.00;0.00;;;;;;;35.02;39.30;100534.16;5045760;28;20037;-64
2022/06/30 11:41:55;;;;;;;0.08;0.08;;;;;;;34.89;38.65;100526.38;5052999;28;20037;-63
2022/06/30 11:44:36;;;;;;;0.00;0.00;;;;;;;34.57;39.25;100533.09;5057974;28;20052;-62